Time;durP1;ratioP1;P1;durP2;ratioP2;P2;SDS_P1;SDS_P2;PMS_P1;PMS_P2;Temp;Humidity;BMP_temperature;BMP_pressure;BME280_temperature;BME280_humidity;BME280_pressure;Samples;Min_cycle;Max_cycle;Signal;HPM_P1;HPM_P2
2023/03/11 00:01:06;;;;;;;9.00;2.60;;;1.90;99.90;;;;;;5110846;28;20056;-87
2023/03/11 00:03:52;;;;;;;5.28;1.08;;;1.80;99.90;;;;;;5096770;28;20109;-86
2023/03/11 00:06:38;;;;;;;5.90;1.50;;;1.90;99.90;;;;;;5111753;28;20152;-86
2023/03/11 00:09:24;;;;;;;6.35;0.73;;;1.90;99.90;;;;;;5121065;28;20075;-86
2023/03/11 00:12:10;;;;;;;3.40;0.63;;;1.90;99.90;;;;;;5101457;28;20514;-87
2023/03/11 00:14:57;;;;;;;5.40;0.70;;;1.90;99.90;;;;;;5096317;28;20043;-88
2023/03/11 00:17:43;;;;;;;6.70;0.95;;;1.90;99.90;;;;;;5109917;28;20496;-87
2023/03/11 00:20:33;;;;;;;4.88;0.80;;;1.90;99.90;;;;;;5095280;28;20044;-86
2023/03/11 00:23:19;;;;;;;4.38;0.60;;;1.90;99.90;;;;;;5111108;28;20107;-87
2023/03/11 00:26:06;;;;;;;4.57;0.60;;;1.90;99.90;;;;;;5114721;28;20048;-87
2023/03/11 00:28:54;;;;;;;4.78;0.77;;;1.90;99.90;;;;;;5091845;28;20484;-86
2023/03/11 00:31:40;;;;;;;4.45;0.80;;;2.00;99.90;;;;;;5110034;28;20161;-87
2023/03/11 00:34:26;;;;;;;6.78;1.08;;;2.00;99.90;;;;;;5083780;28;20086;-87
2023/03/11 00:37:12;;;;;;;5.38;0.70;;;2.00;99.90;;;;;;5123607;28;20121;-86
2023/03/11 00:39:59;;;;;;;4.47;0.90;;;2.00;99.90;;;;;;5117421;28;20062;-87
2023/03/11 00:42:45;;;;;;;4.00;0.60;;;2.00;99.90;;;;;;5110092;28;20050;-86
2023/03/11 00:45:32;;;;;;;3.42;0.63;;;1.90;99.90;;;;;;5110947;28;20415;-87
2023/03/11 00:48:18;;;;;;;4.28;0.70;;;1.90;99.90;;;;;;5092607;28;20526;-86
2023/03/11 00:51:13;;;;;;;11.38;0.90;;;1.90;99.90;;;;;;5099100;28;20392;-86
2023/03/11 00:54:00;;;;;;;5.50;1.10;;;1.90;99.90;;;;;;5094815;28;20103;-87
2023/03/11 00:56:46;;;;;;;6.35;1.13;;;1.90;99.90;;;;;;5098957;28;20131;-87
2023/03/11 00:59:33;;;;;;;3.85;0.60;;;1.90;99.90;;;;;;5081341;28;20055;-87
2023/03/11 01:02:20;;;;;;;6.90;0.80;;;1.90;99.90;;;;;;5115229;28;20445;-86
2023/03/11 01:05:06;;;;;;;11.02;0.68;;;1.90;99.90;;;;;;5084660;28;20051;-85
2023/03/11 01:07:53;;;;;;;5.78;0.80;;;1.90;99.90;;;;;;5107913;28;20074;-86
2023/03/11 01:10:39;;;;;;;9.65;2.05;;;2.00;99.90;;;;;;5115885;28;20059;-86
2023/03/11 01:13:27;;;;;;;4.03;0.80;;;1.90;99.90;;;;;;5097247;28;20511;-86
2023/03/11 01:16:13;;;;;;;9.10;1.20;;;1.90;99.90;;;;;;5096187;28;20056;-87
2023/03/11 01:18:59;;;;;;;5.38;0.70;;;1.90;99.90;;;;;;5096210;28;20159;-86
2023/03/11 01:21:45;;;;;;;4.45;1.50;;;1.90;99.90;;;;;;5114852;28;20058;-86
2023/03/11 01:24:31;;;;;;;3.78;0.47;;;1.90;99.90;;;;;;5117149;28;20530;-87
2023/03/11 01:27:17;;;;;;;10.98;1.77;;;1.90;99.90;;;;;;5104773;28;20108;-87
2023/03/11 01:30:04;;;;;;;4.57;0.82;;;1.90;99.90;;;;;;5099204;28;20055;-88
2023/03/11 01:32:51;;;;;;;2.38;0.80;;;1.90;99.90;;;;;;5113280;28;20419;-87
2023/03/11 01:35:38;;;;;;;2.35;0.45;;;1.80;99.90;;;;;;5100163;28;20535;-88
2023/03/11 01:38:24;;;;;;;10.20;2.38;;;1.80;99.90;;;;;;5121271;28;20046;-88
2023/03/11 01:41:12;;;;;;;1.10;0.35;;;1.70;99.90;;;;;;5129879;28;20055;-86
2023/03/11 01:43:58;;;;;;;5.00;0.68;;;1.70;99.90;;;;;;5082875;28;20083;-88
2023/03/11 01:46:53;;;;;;;2.97;0.50;;;1.70;99.90;;;;;;5112954;28;20048;-88
2023/03/11 01:49:40;;;;;;;3.15;0.45;;;1.70;99.90;;;;;;5113707;28;20139;-88
2023/03/11 01:52:30;;;;;;;5.85;0.93;;;1.70;99.90;;;;;;5113762;28;20478;-87
2023/03/11 01:55:18;;;;;;;5.45;0.70;;;1.70;99.90;;;;;;5113734;28;20070;-86
2023/03/11 01:58:09;;;;;;;9.27;1.50;;;1.70;99.90;;;;;;5103867;28;20165;-86
2023/03/11 02:00:56;;;;;;;7.18;1.63;;;1.80;99.90;;;;;;5128110;28;20048;-85
2023/03/11 02:03:42;;;;;;;6.90;0.85;;;1.80;99.90;;;;;;5097976;28;20059;-87
2023/03/11 02:06:30;;;;;;;5.95;0.70;;;1.80;99.90;;;;;;5111446;28;20499;-87
2023/03/11 02:09:16;;;;;;;5.75;0.90;;;1.80;99.90;;;;;;5095106;28;20057;-87
2023/03/11 02:12:05;;;;;;;3.40;0.63;;;1.80;99.90;;;;;;5111831;28;20047;-86
2023/03/11 02:14:53;;;;;;;3.42;0.75;;;1.80;99.90;;;;;;5117663;28;20112;-86
2023/03/11 02:17:41;;;;;;;1.35;0.50;;;1.80;99.90;;;;;;5116169;28;20074;-87
2023/03/11 02:20:56;;;;;;;5.93;0.70;;;1.80;99.90;;;;;;5106003;28;20058;-86
2023/03/11 02:24:16;;;;;;;3.85;0.63;;;1.80;99.90;;;;;;5114446;28;20051;-86
2023/03/11 02:27:06;;;;;;;4.82;0.88;;;1.70;99.90;;;;;;5099971;28;20047;-85
2023/03/11 02:29:55;;;;;;;4.80;0.90;;;1.70;99.90;;;;;;5114627;28;20403;-86
2023/03/11 02:32:44;;;;;;;4.75;0.60;;;1.70;99.90;;;;;;5101346;28;20058;-85
2023/03/11 02:35:30;;;;;;;3.97;0.73;;;1.60;99.90;;;;;;5104004;28;20055;-87
2023/03/11 02:38:16;;;;;;;4.22;0.60;;;1.50;99.90;;;;;;5114437;28;20043;-87
2023/03/11 02:41:04;;;;;;;3.60;0.93;;;1.50;99.90;;;;;;5114743;28;20078;-88
2023/03/11 02:43:50;;;;;;;9.45;1.52;;;1.50;99.90;;;;;;5113211;28;20606;-86
2023/03/11 02:46:39;;;;;;;4.80;1.00;;;1.50;99.90;;;;;;5099311;28;20509;-85
2023/03/11 02:49:25;;;;;;;7.53;0.70;;;1.50;99.90;;;;;;5121394;28;20047;-84
2023/03/11 02:52:11;;;;;;;4.53;0.90;;;1.40;99.90;;;;;;5094706;28;20056;-85
2023/03/11 02:54:57;;;;;;;4.38;2.00;;;1.30;99.90;;;;;;5096266;28;20051;-84
2023/03/11 02:57:44;;;;;;;8.23;1.20;;;1.40;99.90;;;;;;5097507;28;20056;-86
2023/03/11 03:00:31;;;;;;;3.05;0.63;;;1.30;99.90;;;;;;5115126;28;20131;-85
2023/03/11 03:03:17;;;;;;;9.32;0.85;;;1.40;99.90;;;;;;5085686;28;20096;-84
2023/03/11 03:06:03;;;;;;;6.28;0.60;;;1.50;99.90;;;;;;5104383;28;20070;-85
2023/03/11 03:08:49;;;;;;;7.57;0.80;;;1.40;99.90;;;;;;5115339;28;20047;-85
2023/03/11 03:11:35;;;;;;;7.97;0.70;;;1.40;99.90;;;;;;5097786;28;20400;-84
2023/03/11 03:14:22;;;;;;;4.63;0.70;;;1.40;99.90;;;;;;5100643;28;20051;-86
2023/03/11 03:17:08;;;;;;;4.38;0.57;;;1.30;99.90;;;;;;5105893;28;20048;-86
2023/03/11 03:19:54;;;;;;;4.00;1.00;;;1.40;99.90;;;;;;5102166;28;20452;-84
2023/03/11 03:22:42;;;;;;;5.38;0.75;;;1.30;99.90;;;;;;5103274;28;20130;-86
2023/03/11 03:25:28;;;;;;;4.60;0.70;;;1.30;99.90;;;;;;5116155;28;20082;-86
2023/03/11 03:28:14;;;;;;;2.40;0.65;;;1.30;99.90;;;;;;5113815;28;20048;-86
2023/03/11 03:31:08;;;;;;;8.70;1.02;;;1.30;99.90;;;;;;5093713;28;20156;-87
2023/03/11 03:33:54;;;;;;;5.22;1.00;;;1.30;99.90;;;;;;5101657;28;20047;-85
2023/03/11 03:36:41;;;;;;;4.13;0.68;;;1.30;99.90;;;;;;5098598;28;20050;-87
2023/03/11 03:39:27;;;;;;;3.20;0.77;;;1.30;99.90;;;;;;5112481;28;20635;-86
2023/03/11 03:42:13;;;;;;;6.30;1.73;;;1.30;99.90;;;;;;5098203;28;20052;-85
2023/03/11 03:44:59;;;;;;;4.75;0.77;;;1.30;99.90;;;;;;5094251;28;20052;-84
2023/03/11 03:47:45;;;;;;;3.00;1.10;;;1.30;99.90;;;;;;5121976;28;20059;-87
2023/03/11 03:50:31;;;;;;;8.82;2.63;;;1.30;99.90;;;;;;5094813;28;20058;-85
2023/03/11 03:53:17;;;;;;;5.55;1.15;;;1.20;99.90;;;;;;5112876;28;20079;-86
2023/03/11 03:56:15;;;;;;;6.60;0.80;;;1.20;99.90;;;;;;5096630;28;20056;-86
2023/03/11 03:59:01;;;;;;;6.82;1.30;;;1.20;99.90;;;;;;5098209;28;20052;-86
2023/03/11 04:01:47;;;;;;;3.65;0.70;;;1.20;99.90;;;;;;5116609;28;20043;-86
2023/03/11 04:04:33;;;;;;;4.93;0.70;;;1.20;99.90;;;;;;5111055;28;20185;-86
2023/03/11 04:07:20;;;;;;;10.40;1.23;;;1.20;99.90;;;;;;5112629;28;20048;-86
2023/03/11 04:10:06;;;;;;;5.15;0.90;;;1.20;99.90;;;;;;5113491;28;20552;-85
2023/03/11 04:12:52;;;;;;;8.90;0.80;;;1.20;99.90;;;;;;5099787;28;20051;-87
2023/03/11 04:15:38;;;;;;;8.30;0.73;;;1.30;99.90;;;;;;5101881;28;20407;-87
2023/03/11 04:18:26;;;;;;;4.22;0.90;;;1.20;99.90;;;;;;5105931;28;20079;-86
2023/03/11 04:21:12;;;;;;;7.97;1.00;;;1.30;99.90;;;;;;5111363;28;20495;-86
2023/03/11 04:23:58;;;;;;;4.65;1.42;;;1.30;99.90;;;;;;5111764;28;20082;-87
2023/03/11 04:26:44;;;;;;;3.08;0.90;;;1.30;99.90;;;;;;5093841;28;20104;-86
2023/03/11 04:29:30;;;;;;;3.53;0.60;;;1.30;99.90;;;;;;5069812;28;20043;-85
2023/03/11 04:32:16;;;;;;;7.97;0.70;;;1.20;99.90;;;;;;5118450;28;20078;-85
2023/03/11 04:35:03;;;;;;;4.70;0.52;;;1.20;99.90;;;;;;5115830;28;20070;-86
2023/03/11 04:37:50;;;;;;;7.38;1.13;;;1.20;99.90;;;;;;5092451;28;20483;-86
2023/03/11 04:40:37;;;;;;;5.95;1.27;;;1.20;99.90;;;;;;5111554;28;20105;-87
2023/03/11 04:43:23;;;;;;;5.35;1.33;;;1.20;99.90;;;;;;5117592;28;20044;-87
2023/03/11 04:46:09;;;;;;;8.60;0.70;;;1.10;99.90;;;;;;5101558;28;20055;-86
2023/03/11 04:48:55;;;;;;;5.32;1.13;;;1.20;99.90;;;;;;5083134;28;20048;-85
2023/03/11 04:51:41;;;;;;;6.05;1.08;;;1.10;99.90;;;;;;5101991;28;20064;-86
2023/03/11 04:54:27;;;;;;;5.95;1.17;;;1.10;99.90;;;;;;5095453;28;20051;-86
2023/03/11 04:57:13;;;;;;;5.72;0.57;;;1.10;99.90;;;;;;5110892;28;20048;-86
2023/03/11 04:59:59;;;;;;;5.75;0.93;;;1.00;99.90;;;;;;5097934;28;20043;-86
2023/03/11 05:02:45;;;;;;;5.00;0.63;;;1.00;99.90;;;;;;5113751;28;20054;-87
2023/03/11 05:05:31;;;;;;;16.45;1.67;;;0.90;99.90;;;;;;5104275;28;20126;-87
2023/03/11 05:08:17;;;;;;;5.90;1.15;;;1.00;99.90;;;;;;5114450;28;20050;-86
2023/03/11 05:11:04;;;;;;;4.35;0.93;;;1.00;99.90;;;;;;5070040;28;20062;-86
2023/03/11 05:13:50;;;;;;;3.80;0.52;;;1.00;99.90;;;;;;5117126;28;20075;-87
2023/03/11 05:16:36;;;;;;;7.15;2.33;;;0.90;99.90;;;;;;5115052;28;20079;-87
2023/03/11 05:19:32;;;;;;;5.97;0.98;;;0.90;99.90;;;;;;5097833;28;20447;-86
2023/03/11 05:22:19;;;;;;;3.25;0.77;;;0.80;99.90;;;;;;5124370;28;20056;-86
2023/03/11 05:25:06;;;;;;;5.60;1.75;;;0.80;99.90;;;;;;5097962;28;20140;-85
2023/03/11 05:27:52;;;;;;;5.30;0.85;;;0.90;99.90;;;;;;5094743;28;20165;-87
2023/03/11 05:30:38;;;;;;;2.65;0.57;;;0.90;99.90;;;;;;5116817;28;20655;-87
2023/03/11 05:33:24;;;;;;;10.52;1.48;;;0.90;99.90;;;;;;5112227;28;20043;-86
2023/03/11 05:36:10;;;;;;;5.90;0.98;;;0.90;99.90;;;;;;5104096;28;20057;-86
2023/03/11 05:38:56;;;;;;;4.57;1.48;;;0.90;99.90;;;;;;5116855;28;20054;-86
2023/03/11 05:41:43;;;;;;;1.85;0.40;;;0.80;99.90;;;;;;5115121;28;20465;-86
2023/03/11 05:44:29;;;;;;;8.98;1.10;;;0.80;99.90;;;;;;5105647;28;20483;-88
2023/03/11 05:47:16;;;;;;;6.10;0.80;;;0.80;99.90;;;;;;5116294;28;20048;-85
2023/03/11 05:50:03;;;;;;;7.10;1.80;;;0.80;99.90;;;;;;5121699;28;20050;-85
2023/03/11 05:52:49;;;;;;;5.20;0.50;;;0.80;99.90;;;;;;5130577;28;20488;-85
2023/03/11 05:55:36;;;;;;;7.85;1.38;;;0.70;99.90;;;;;;5078512;28;20063;-85
2023/03/11 05:58:21;;;;;;;23.10;1.73;;;0.80;99.90;;;;;;5109088;28;20103;-86
2023/03/11 06:01:10;;;;;;;5.75;0.40;;;0.70;99.90;;;;;;5110174;28;20044;-87
2023/03/11 06:03:56;;;;;;;5.63;0.93;;;0.70;99.90;;;;;;5092314;28;20055;-87
2023/03/11 06:06:42;;;;;;;5.43;1.27;;;0.70;99.90;;;;;;5090226;28;20471;-86
2023/03/11 06:09:28;;;;;;;5.28;0.90;;;0.60;99.90;;;;;;5089703;28;20059;-87
2023/03/11 06:12:14;;;;;;;5.15;0.95;;;0.60;99.90;;;;;;5080027;28;20142;-86
2023/03/11 06:15:00;;;;;;;1.75;0.65;;;0.60;99.90;;;;;;5078709;28;20087;-88
2023/03/11 06:17:46;;;;;;;11.63;1.00;;;0.60;99.90;;;;;;5092676;28;20052;-86
2023/03/11 06:20:32;;;;;;;3.08;0.63;;;0.70;99.90;;;;;;5097976;28;20488;-86
2023/03/11 06:23:19;;;;;;;6.60;1.00;;;0.70;99.90;;;;;;5096301;28;20062;-87
2023/03/11 06:26:05;;;;;;;3.10;0.75;;;0.80;99.90;;;;;;5083598;28;20059;-86
2023/03/11 06:28:51;;;;;;;4.90;0.80;;;0.90;99.90;;;;;;5102826;28;20044;-87
2023/03/11 06:31:38;;;;;;;3.28;0.63;;;1.00;99.90;;;;;;5079569;28;20052;-87
2023/03/11 06:34:24;;;;;;;9.48;1.58;;;1.00;99.90;;;;;;5093767;28;20048;-86
2023/03/11 06:37:10;;;;;;;7.03;1.05;;;1.10;99.90;;;;;;5092541;28;20044;-85
2023/03/11 06:39:57;;;;;;;4.55;0.70;;;1.10;99.90;;;;;;5096087;28;20055;-86
2023/03/11 06:42:46;;;;;;;4.97;0.85;;;1.20;99.90;;;;;;5097001;28;20126;-88
2023/03/11 06:45:32;;;;;;;3.80;0.70;;;1.30;99.90;;;;;;5091874;28;20052;-87
2023/03/11 06:48:18;;;;;;;8.07;1.02;;;1.40;99.90;;;;;;5096685;28;20058;-86
2023/03/11 06:51:05;;;;;;;2.72;0.75;;;1.50;99.90;;;;;;5075999;28;20070;-87
2023/03/11 06:53:53;;;;;;;3.10;0.60;;;1.60;99.90;;;;;;5069993;28;20059;-89
2023/03/11 06:56:38;;;;;;;3.70;0.63;;;1.70;99.90;;;;;;5117457;28;20054;-86
2023/03/11 06:59:27;;;;;;;6.97;0.70;;;1.80;99.90;;;;;;5115785;28;20043;-86
2023/03/11 07:02:13;;;;;;;10.10;1.45;;;1.80;99.90;;;;;;5095819;28;20047;-88
2023/03/11 07:04:59;;;;;;;6.55;0.80;;;2.00;99.90;;;;;;5097779;28;20059;-87
2023/03/11 07:07:46;;;;;;;7.15;0.70;;;2.00;99.90;;;;;;5112281;28;20135;-87
2023/03/11 07:10:32;;;;;;;7.18;0.75;;;2.10;99.90;;;;;;5111795;28;20058;-88
2023/03/11 07:13:18;;;;;;;13.35;1.42;;;2.20;99.90;;;;;;5112780;28;20122;-88
2023/03/11 07:16:11;;;;;;;11.70;1.17;;;2.40;99.90;;;;;;5120341;28;20134;-86
2023/03/11 07:19:01;;;;;;;5.13;0.98;;;2.50;99.90;;;;;;5108419;28;20054;-87
2023/03/11 07:21:50;;;;;;;5.07;1.15;;;2.60;99.90;;;;;;5082125;28;20059;-86
2023/03/11 07:24:36;;;;;;;7.70;0.90;;;2.80;99.90;;;;;;5080825;28;20058;-88
2023/03/11 07:27:22;;;;;;;5.78;0.50;;;2.90;99.90;;;;;;5116008;28;20066;-87
2023/03/11 07:30:08;;;;;;;4.65;1.15;;;2.90;99.90;;;;;;5120461;28;20504;-87
2023/03/11 07:32:55;;;;;;;4.85;0.90;;;2.80;99.90;;;;;;5120313;28;20051;-86
2023/03/11 07:35:41;;;;;;;7.60;1.40;;;2.80;99.90;;;;;;5127090;28;20090;-88
2023/03/11 07:38:27;;;;;;;8.98;2.13;;;2.70;99.90;;;;;;5121381;28;20113;-88
2023/03/11 07:41:14;;;;;;;9.18;1.27;;;2.80;99.90;;;;;;5115740;28;20134;-87
2023/03/11 07:44:02;;;;;;;16.67;2.58;;;2.90;99.90;;;;;;5118613;28;20047;-87
2023/03/11 07:46:48;;;;;;;5.97;1.30;;;2.90;99.90;;;;;;5101557;28;20082;-87
2023/03/11 07:49:34;;;;;;;7.78;1.50;;;2.90;99.90;;;;;;5102135;28;20048;-88
2023/03/11 07:52:20;;;;;;;9.82;1.08;;;3.00;99.90;;;;;;5116694;28;20048;-87
2023/03/11 07:55:07;;;;;;;8.90;1.20;;;2.90;99.90;;;;;;5118759;28;20054;-87
2023/03/11 07:57:53;;;;;;;3.90;0.75;;;2.90;99.90;;;;;;5090320;28;20039;-88
2023/03/11 08:00:39;;;;;;;6.47;1.55;;;2.90;99.90;;;;;;5084570;28;20062;-87
2023/03/11 08:03:25;;;;;;;6.60;0.88;;;2.90;99.90;;;;;;5102237;28;20043;-89
2023/03/11 08:06:19;;;;;;;10.60;1.70;;;2.90;99.90;;;;;;5117443;28;20047;-88
2023/03/11 08:09:08;;;;;;;9.70;1.17;;;2.90;99.90;;;;;;5103077;28;20043;-87
2023/03/11 08:11:54;;;;;;;7.28;1.27;;;2.90;99.90;;;;;;5118126;28;20048;-88
2023/03/11 08:14:42;;;;;;;10.32;1.33;;;2.90;99.90;;;;;;5101675;28;20047;-89
2023/03/11 08:17:28;;;;;;;9.35;1.42;;;2.80;99.90;;;;;;5097414;28;20051;-87
2023/03/11 08:20:14;;;;;;;5.40;1.02;;;2.90;99.90;;;;;;5083713;28;20044;-88
2023/03/11 08:23:04;;;;;;;4.30;1.40;;;3.00;99.90;;;;;;5119313;28;20494;-88
2023/03/11 08:25:50;;;;;;;7.93;1.70;;;3.00;99.90;;;;;;5086338;28;20044;-87
2023/03/11 08:28:37;;;;;;;12.10;1.88;;;3.10;99.90;;;;;;5120557;28;20054;-86
2023/03/11 08:31:26;;;;;;;10.55;1.85;;;3.10;99.90;;;;;;5096083;28;20051;-87
2023/03/11 08:34:13;;;;;;;6.10;1.08;;;3.10;99.90;;;;;;5095729;28;20085;-86
2023/03/11 08:36:59;;;;;;;7.53;1.00;;;3.20;99.90;;;;;;5093201;28;20047;-85
2023/03/11 08:39:45;;;;;;;3.85;1.02;;;3.20;99.90;;;;;;5110492;28;20053;-86
2023/03/11 08:42:31;;;;;;;8.60;1.00;;;3.30;99.90;;;;;;5097248;28;20051;-86
2023/03/11 08:45:17;;;;;;;4.57;1.13;;;3.30;99.90;;;;;;5095989;28;20579;-85
2023/03/11 08:48:04;;;;;;;6.85;1.45;;;3.40;99.90;;;;;;5112867;28;20090;-86
2023/03/11 08:50:50;;;;;;;6.30;1.45;;;3.40;99.90;;;;;;5111934;28;20051;-85
2023/03/11 08:53:36;;;;;;;12.40;1.88;;;3.50;99.90;;;;;;5108872;28;20173;-87
2023/03/11 08:56:22;;;;;;;12.02;2.55;;;3.50;99.90;;;;;;5109558;28;20445;-86
2023/03/11 08:59:08;;;;;;;7.78;1.20;;;3.60;99.90;;;;;;5092303;28;20047;-86
2023/03/11 09:01:55;;;;;;;8.45;1.05;;;3.70;99.90;;;;;;5110012;28;20055;-86
2023/03/11 09:04:41;;;;;;;11.07;1.00;;;3.80;99.90;;;;;;5098086;28;20093;-86
2023/03/11 09:07:27;;;;;;;5.45;1.00;;;3.80;99.90;;;;;;5096139;28;20048;-85
2023/03/11 09:10:14;;;;;;;4.63;1.40;;;3.90;99.90;;;;;;5099481;28;20048;-85
2023/03/11 09:13:00;;;;;;;5.40;1.10;;;4.20;99.90;;;;;;5114422;28;20047;-85
2023/03/11 09:15:52;;;;;;;5.63;1.40;;;4.20;99.90;;;;;;5096833;28;20043;-84
2023/03/11 09:18:38;;;;;;;4.95;1.30;;;4.30;99.90;;;;;;5104301;28;20054;-84
2023/03/11 09:21:24;;;;;;;5.70;1.13;;;4.30;99.90;;;;;;5118193;28;20047;-85
2023/03/11 09:24:10;;;;;;;5.78;1.20;;;4.30;99.90;;;;;;5096860;28;20063;-86
2023/03/11 09:26:56;;;;;;;10.73;3.00;;;4.60;99.90;;;;;;5116011;28;20039;-85
2023/03/11 09:29:42;;;;;;;4.32;0.88;;;4.70;99.90;;;;;;5114910;28;20745;-88
2023/03/11 09:32:28;;;;;;;8.27;1.40;;;4.70;99.90;;;;;;5115741;28;20105;-86
2023/03/11 09:35:15;;;;;;;5.07;1.00;;;4.80;99.90;;;;;;5115919;28;20058;-86
2023/03/11 09:38:01;;;;;;;8.52;1.95;;;4.90;99.90;;;;;;5116080;28;20091;-88
2023/03/11 09:41:23;;;;;;;5.82;0.98;;;4.90;99.90;;;;;;5101814;28;20107;-88
2023/03/11 09:44:17;;;;;;;6.72;1.48;;;5.00;99.90;;;;;;5075329;28;20047;-89
2023/03/11 09:47:18;;;;;;;6.28;1.13;;;5.10;99.90;;;;;;5099093;28;20054;-89
2023/03/11 09:50:04;;;;;;;9.48;1.42;;;5.30;99.90;;;;;;5095500;28;20142;-89
2023/03/11 09:52:53;;;;;;;8.25;1.13;;;5.30;99.90;;;;;;5118477;28;20052;-89
2023/03/11 09:55:52;;;;;;;9.30;1.30;;;5.30;99.90;;;;;;5091611;28;20116;-88
2023/03/11 09:58:50;;;;;;;11.82;2.30;;;5.50;99.90;;;;;;5084987;28;20078;-90
2023/03/11 10:01:41;;;;;;;6.38;1.15;;;5.70;99.90;;;;;;5095459;28;20109;-92
2023/03/11 10:04:46;;;;;;;14.13;1.45;;;6.00;99.90;;;;;;5062389;28;20048;-88
2023/03/11 10:07:40;;;;;;;8.40;1.13;;;6.20;99.90;;;;;;5098882;28;20109;-87
2023/03/11 10:10:32;;;;;;;27.77;3.00;;;6.20;99.90;;;;;;5100996;28;20071;-92
2023/03/11 10:13:58;;;;;;;6.05;0.95;;;5.90;99.90;;;;;;5096607;28;20079;-90
2023/03/11 10:16:50;;;;;;;4.72;1.85;;;6.20;99.90;;;;;;5062693;28;20052;-88
2023/03/11 10:20:00;;;;;;;5.25;1.05;;;6.40;99.90;;;;;;5100485;28;20101;-90
2023/03/11 10:22:49;;;;;;;22.38;3.78;;;6.50;99.90;;;;;;5099852;28;20155;-86
2023/03/11 10:25:48;;;;;;;11.07;1.60;;;6.40;99.90;;;;;;5078454;28;20147;-91
2023/03/11 10:28:38;;;;;;;4.85;1.30;;;6.40;99.90;;;;;;5083869;28;20044;-89
2023/03/11 10:31:31;;;;;;;9.30;1.58;;;6.50;99.90;;;;;;5079249;28;20514;-86
2023/03/11 10:34:53;;;;;;;7.13;1.10;;;6.40;99.90;;;;;;5092402;28;20075;-88
2023/03/11 10:37:43;;;;;;;7.15;0.90;;;6.60;99.90;;;;;;5060845;28;20496;-87
2023/03/11 10:40:33;;;;;;;9.20;1.23;;;6.50;99.90;;;;;;5078712;28;20040;-88
2023/03/11 10:43:40;;;;;;;4.68;0.88;;;6.70;99.90;;;;;;5093365;28;20492;-86
2023/03/11 10:46:28;;;;;;;5.00;0.88;;;6.90;99.90;;;;;;5082001;28;20403;-90
2023/03/11 10:49:18;;;;;;;19.25;2.28;;;6.70;99.90;;;;;;5075289;28;20419;-89
2023/03/11 10:52:05;;;;;;;4.13;0.80;;;6.80;99.90;;;;;;5083727;28;20106;-90
2023/03/11 10:55:01;;;;;;;3.80;0.80;;;7.00;99.90;;;;;;5103682;27;20614;-88
2023/03/11 10:57:47;;;;;;;8.88;1.10;;;7.10;99.90;;;;;;5122389;27;20047;-86
2023/03/11 11:00:34;;;;;;;5.13;1.20;;;6.90;99.90;;;;;;5138756;27;20524;-87
2023/03/11 11:03:23;;;;;;;9.00;1.80;;;7.10;99.90;;;;;;5131949;27;20491;-87
2023/03/11 11:06:29;;;;;;;5.55;1.13;;;7.20;99.90;;;;;;5132480;27;20050;-86
2023/03/11 11:09:15;;;;;;;6.63;0.93;;;7.40;99.90;;;;;;5112527;27;20502;-88
2023/03/11 11:12:18;;;;;;;8.05;1.08;;;7.50;99.90;;;;;;5130772;27;20533;-87
2023/03/11 11:15:06;;;;;;;3.40;0.90;;;7.60;99.90;;;;;;5141143;27;20043;-89
2023/03/11 11:17:55;;;;;;;4.20;0.90;;;7.70;99.90;;;;;;5120520;27;20494;-88
2023/03/11 11:20:54;;;;;;;5.22;1.20;;;7.80;99.90;;;;;;5131482;27;20054;-89
2023/03/11 11:23:45;;;;;;;9.57;1.30;;;8.00;99.90;;;;;;5131337;27;20060;-87
2023/03/11 11:26:31;;;;;;;4.60;0.77;;;8.20;99.90;;;;;;5131450;27;20414;-88
2023/03/11 11:29:18;;;;;;;6.85;0.98;;;8.20;99.90;;;;;;5121883;27;20047;-87
2023/03/11 11:32:19;;;;;;;8.05;1.08;;;8.10;99.90;;;;;;5116974;27;20062;-88
2023/03/11 11:35:08;;;;;;;7.28;1.08;;;8.00;99.90;;;;;;5131915;27;20062;-87
2023/03/11 11:38:01;;;;;;;2.83;0.77;;;8.10;99.90;;;;;;5133011;27;20043;-85
2023/03/11 11:40:47;;;;;;;5.88;1.00;;;8.20;99.90;;;;;;5122772;28;20055;-88
2023/03/11 11:43:42;;;;;;;4.22;0.70;;;8.40;99.90;;;;;;5124584;28;20044;-87
2023/03/11 11:46:41;;;;;;;5.78;0.85;;;8.70;99.90;;;;;;5113198;28;20043;-87
2023/03/11 11:49:33;;;;;;;4.03;0.90;;;8.80;99.90;;;;;;5112524;27;20523;-87
2023/03/11 11:52:24;;;;;;;8.77;1.00;;;9.00;99.90;;;;;;5113074;27;20057;-87
2023/03/11 11:55:24;;;;;;;7.70;1.08;;;9.20;99.90;;;;;;5131380;27;20491;-86
2023/03/11 11:58:11;;;;;;;6.55;0.70;;;8.90;99.90;;;;;;5133072;27;20051;-86
2023/03/11 12:01:14;;;;;;;2.95;0.45;;;9.00;99.90;;;;;;5132538;27;20392;-87
2023/03/11 12:04:04;;;;;;;3.45;0.70;;;8.80;98.90;;;;;;5118479;27;20043;-88
2023/03/11 12:07:34;;;;;;;6.07;0.82;;;9.00;99.80;;;;;;5130239;27;20148;-88
2023/03/11 12:10:49;;;;;;;3.30;0.77;;;9.80;99.00;;;;;;5124588;27;20114;-87
2023/03/11 12:14:02;;;;;;;3.83;0.60;;;10.30;97.90;;;;;;5131171;27;20051;-87
2023/03/11 12:17:00;;;;;;;5.63;1.20;;;10.50;96.50;;;;;;5131650;27;20265;-89
2023/03/11 12:19:58;;;;;;;3.67;0.47;;;10.90;96.90;;;;;;5114825;27;20561;-89
2023/03/11 12:23:13;;;;;;;7.43;1.00;;;11.30;95.90;;;;;;5131449;27;20039;-87
2023/03/11 12:26:24;;;;;;;2.65;0.60;;;11.70;94.40;;;;;;5131228;27;20047;-89
2023/03/11 12:29:23;;;;;;;3.17;0.68;;;11.70;94.60;;;;;;5130606;27;20054;-89
2023/03/11 12:32:31;;;;;;;8.52;1.27;;;11.90;93.30;;;;;;5137845;27;20047;-86
2023/03/11 12:35:26;;;;;;;5.43;0.50;;;11.40;92.60;;;;;;5117282;27;20047;-87
2023/03/11 12:38:12;;;;;;;3.17;0.82;;;11.00;94.70;;;;;;5131230;27;20081;-87
2023/03/11 12:41:13;;;;;;;9.43;0.80;;;10.30;93.50;;;;;;5101250;28;20058;-88
2023/03/11 12:44:16;;;;;;;3.05;0.40;;;9.50;94.20;;;;;;5111392;28;20134;-89
2023/03/11 12:47:23;;;;;;;4.07;0.68;;;10.00;95.60;;;;;;5115079;28;20047;-88
2023/03/11 12:50:38;;;;;;;3.70;0.32;;;10.80;94.20;;;;;;5113307;27;20112;-88
2023/03/11 12:53:48;;;;;;;1.65;0.40;;;11.60;92.10;;;;;;5134336;27;20667;-87
2023/03/11 12:56:49;;;;;;;3.97;0.40;;;12.40;90.70;;;;;;5135207;27;20047;-87
2023/03/11 13:00:10;;;;;;;2.40;0.30;;;13.30;89.70;;;;;;5118043;27;20372;-87
2023/03/11 13:03:08;;;;;;;5.22;0.75;;;12.80;84.50;;;;;;5123009;27;20555;-88
2023/03/11 13:06:19;;;;;;;2.70;0.70;;;12.50;87.40;;;;;;5139463;27;20050;-88
2023/03/11 13:09:14;;;;;;;3.28;0.60;;;13.40;84.90;;;;;;5149397;27;20051;-85
2023/03/11 13:12:01;;;;;;;3.13;0.63;;;13.30;81.80;;;;;;5136538;27;20051;-88
2023/03/11 13:14:47;;;;;;;7.25;0.77;;;13.50;81.20;;;;;;5124285;27;20276;-87
2023/03/11 13:17:33;;;;;;;4.10;0.65;;;12.60;79.40;;;;;;5126892;27;20141;-87
2023/03/11 13:20:40;;;;;;;2.53;0.50;;;12.70;82.20;;;;;;5121689;27;20054;-88
2023/03/11 13:23:39;;;;;;;1.63;0.40;;;13.20;80.00;;;;;;5117586;27;20047;-88
2023/03/11 13:26:48;;;;;;;3.33;0.60;;;13.90;79.20;;;;;;5134603;27;20040;-88
2023/03/11 13:30:02;;;;;;;10.43;0.75;;;14.10;75.60;;;;;;5133334;27;20135;-88
2023/03/11 13:33:14;;;;;;;3.08;0.45;;;14.70;77.80;;;;;;5133213;27;20074;-87
2023/03/11 13:36:28;;;;;;;1.38;0.47;;;14.50;75.20;;;;;;5135682;27;20211;-88
2023/03/11 13:39:41;;;;;;;5.90;0.70;;;14.30;71.70;;;;;;5111122;27;20479;-88
2023/03/11 13:42:34;;;;;;;4.97;1.13;;;14.50;72.00;;;;;;5104893;28;20043;-88
2023/03/11 13:45:29;;;;;;;3.83;0.70;;;14.70;72.80;;;;;;5121725;28;20055;-88
2023/03/11 13:48:40;;;;;;;4.38;0.50;;;14.20;71.70;;;;;;5098890;28;20079;-89
2023/03/11 13:51:43;;;;;;;5.90;0.70;;;14.10;71.60;;;;;;5113947;28;20055;-88
2023/03/11 13:54:46;;;;;;;3.10;0.65;;;14.00;74.30;;;;;;5113123;28;20556;-87
2023/03/11 13:57:35;;;;;;;4.38;1.05;;;13.40;75.00;;;;;;5120904;27;20055;-88
2023/03/11 14:00:27;;;;;;;4.78;1.20;;;11.80;79.70;;;;;;5128507;27;20050;-87
2023/03/11 14:03:17;;;;;;;2.75;0.77;;;10.60;85.50;;;;;;5126617;27;20051;-87
2023/03/11 14:06:10;;;;;;;6.57;0.88;;;9.80;90.60;;;;;;5112930;27;20151;-87
2023/03/11 14:08:56;;;;;;;4.32;0.50;;;9.20;92.00;;;;;;5123921;27;20043;-87
2023/03/11 14:11:46;;;;;;;6.55;0.82;;;8.90;94.00;;;;;;5104214;27;20047;-87
2023/03/11 14:14:55;;;;;;;4.53;0.93;;;8.90;95.80;;;;;;5152903;27;20043;-87
2023/03/11 14:17:41;;;;;;;2.20;0.52;;;9.00;97.50;;;;;;5155667;27;20481;-88
2023/03/11 14:20:27;;;;;;;5.10;0.82;;;9.30;96.30;;;;;;5135891;27;20039;-88
2023/03/11 14:23:18;;;;;;;3.05;0.50;;;10.00;95.50;;;;;;5125909;27;20046;-87
2023/03/11 14:26:08;;;;;;;1.88;0.60;;;9.40;96.20;;;;;;5122085;27;20055;-87
2023/03/11 14:28:58;;;;;;;5.25;0.90;;;9.30;96.90;;;;;;5127973;27;20057;-87
2023/03/11 14:31:46;;;;;;;3.63;0.50;;;11.10;94.90;;;;;;5134342;27;20076;-88
2023/03/11 14:34:39;;;;;;;4.60;0.65;;;11.50;93.00;;;;;;5141288;27;20039;-89
2023/03/11 14:37:37;;;;;;;7.30;0.98;;;12.10;93.00;;;;;;5116463;27;20035;-88
2023/03/11 14:40:32;;;;;;;5.57;0.90;;;11.40;92.70;;;;;;5121243;27;20138;-89
2023/03/11 14:43:20;;;;;;;1.90;0.32;;;9.20;95.70;;;;;;5136347;27;20051;-88
2023/03/11 14:46:08;;;;;;;1.65;0.38;;;8.00;99.30;;;;;;5136337;27;20047;-87
2023/03/11 14:48:56;;;;;;;2.47;0.40;;;6.60;99.90;;;;;;5135609;27;20106;-88
2023/03/11 14:51:43;;;;;;;2.47;0.70;;;5.60;99.90;;;;;;5138360;27;20043;-87
2023/03/11 14:54:32;;;;;;;2.83;0.50;;;5.50;99.90;;;;;;5100140;28;20063;-87
2023/03/11 14:57:27;;;;;;;5.35;0.63;;;6.40;99.90;;;;;;5112224;28;20134;-87